sensor_id;sensor_type;location;lat;lon;timestamp;pressure;altitude;pressure_sealevel;temperature;humidity
59513;BME280;45330;51.634;5.562;2023-04-22T00:01:25;100732.66;;;6.37;100.00
59513;BME280;45330;51.634;5.562;2023-04-22T00:03:51;100762.97;;;6.50;100.00
59513;BME280;45330;51.634;5.562;2023-04-22T00:06:17;100763.81;;;6.47;100.00
59513;BME280;45330;51.634;5.562;2023-04-22T00:08:43;100740.44;;;6.37;100.00
59513;BME280;45330;51.634;5.562;2023-04-22T00:11:08;100752.56;;;6.45;100.00
59513;BME280;45330;51.634;5.562;2023-04-22T00:13:34;100758.53;;;6.40;100.00
59513;BME280;45330;51.634;5.562;2023-04-22T00:16:02;100730.91;;;6.31;100.00
59513;BME280;45330;51.634;5.562;2023-04-22T00:18:27;100752.53;;;6.41;100.00
59513;BME280;45330;51.634;5.562;2023-04-22T00:20:52;100726.59;;;6.31;100.00
59513;BME280;45330;51.634;5.562;2023-04-22T00:23:18;100725.72;;;6.29;100.00
59513;BME280;45330;51.634;5.562;2023-04-22T00:25:43;100745.56;;;6.33;100.00
59513;BME280;45330;51.634;5.562;2023-04-22T00:28:09;100747.34;;;6.38;100.00
59513;BME280;45330;51.634;5.562;2023-04-22T00:30:34;100746.44;;;6.35;100.00
59513;BME280;45330;51.634;5.562;2023-04-22T00:33:00;100751.59;;;6.35;100.00
59513;BME280;45330;51.634;5.562;2023-04-22T00:35:25;100758.50;;;6.35;100.00
59513;BME280;45330;51.634;5.562;2023-04-22T00:37:51;100748.16;;;6.33;100.00
59513;BME280;45330;51.634;5.562;2023-04-22T00:40:16;100749.00;;;6.34;100.00
59513;BME280;45330;51.634;5.562;2023-04-22T00:42:42;100747.31;;;6.34;100.00
59513;BME280;45330;51.634;5.562;2023-04-22T00:45:14;100742.97;;;6.32;100.00
59513;BME280;45330;51.634;5.562;2023-04-22T00:47:40;100742.06;;;6.30;100.00
59513;BME280;45330;51.634;5.562;2023-04-22T00:50:06;100742.06;;;6.30;100.00
59513;BME280;45330;51.634;5.562;2023-04-22T00:52:31;100753.31;;;6.32;100.00
59513;BME280;45330;51.634;5.562;2023-04-22T00:54:57;100748.97;;;6.29;100.00
59513;BME280;45330;51.634;5.562;2023-04-22T00:57:23;100742.00;;;6.22;100.00
59513;BME280;45330;51.634;5.562;2023-04-22T00:59:48;100761.06;;;6.30;100.00
59513;BME280;45330;51.634;5.562;2023-04-22T01:02:14;100740.28;;;6.23;100.00
59513;BME280;45330;51.634;5.562;2023-04-22T01:04:40;100742.88;;;6.23;100.00
59513;BME280;45330;51.634;5.562;2023-04-22T01:07:05;100730.72;;;6.14;100.00
59513;BME280;45330;51.634;5.562;2023-04-22T01:09:31;100748.06;;;6.26;100.00
59513;BME280;45330;51.634;5.562;2023-04-22T01:11:57;100747.16;;;6.21;100.00
59513;BME280;45330;51.634;5.562;2023-04-22T01:14:23;100756.63;;;6.20;100.00
59513;BME280;45330;51.634;5.562;2023-04-22T01:16:49;100724.63;;;6.09;100.00
59513;BME280;45330;51.634;5.562;2023-04-22T01:19:15;100722.94;;;6.08;100.00
59513;BME280;45330;51.634;5.562;2023-04-22T01:21:41;100741.16;;;6.22;100.00
59513;BME280;45330;51.634;5.562;2023-04-22T01:24:09;100725.59;;;6.17;100.00
59513;BME280;45330;51.634;5.562;2023-04-22T01:26:35;100742.97;;;6.30;100.00
59513;BME280;45330;51.634;5.562;2023-04-22T01:29:02;100719.63;;;6.24;100.00
59513;BME280;45330;51.634;5.562;2023-04-22T01:31:29;100721.47;;;6.34;100.00
59513;BME280;45330;51.634;5.562;2023-04-22T01:33:54;100725.88;;;6.46;100.00
59513;BME280;45330;51.634;5.562;2023-04-22T01:36:20;100727.63;;;6.49;100.00
59513;BME280;45330;51.634;5.562;2023-04-22T01:38:45;100719.81;;;6.43;100.00
59513;BME280;45330;51.634;5.562;2023-04-22T01:41:12;100712.09;;;6.46;100.00
59513;BME280;45330;51.634;5.562;2023-04-22T01:43:38;100725.13;;;6.58;100.00
59513;BME280;45330;51.634;5.562;2023-04-22T01:46:05;100707.78;;;6.46;100.00
59513;BME280;45330;51.634;5.562;2023-04-22T01:48:31;100714.72;;;6.52;100.00
59513;BME280;45330;51.634;5.562;2023-04-22T01:50:56;100712.97;;;6.51;100.00
59513;BME280;45330;51.634;5.562;2023-04-22T01:53:21;100726.00;;;6.62;100.00
59513;BME280;45330;51.634;5.562;2023-04-22T01:55:47;100708.72;;;6.56;100.00
59513;BME280;45330;51.634;5.562;2023-04-22T01:58:12;100718.22;;;6.60;100.00
59513;BME280;45330;51.634;5.562;2023-04-22T02:00:38;100707.84;;;6.54;100.00
59513;BME280;45330;51.634;5.562;2023-04-22T02:03:03;100716.50;;;6.62;100.00
59513;BME280;45330;51.634;5.562;2023-04-22T02:05:29;100707.91;;;6.63;100.00
59513;BME280;45330;51.634;5.562;2023-04-22T02:07:54;100697.53;;;6.57;100.00
59513;BME280;45330;51.634;5.562;2023-04-22T02:10:19;100712.22;;;6.63;100.00
59513;BME280;45330;51.634;5.562;2023-04-22T02:12:45;100711.41;;;6.65;100.00
59513;BME280;45330;51.634;5.562;2023-04-22T02:15:11;100707.03;;;6.61;100.00
59513;BME280;45330;51.634;5.562;2023-04-22T02:17:37;100678.50;;;6.46;100.00
59513;BME280;45330;51.634;5.562;2023-04-22T02:20:03;100707.91;;;6.65;100.00
59513;BME280;45330;51.634;5.562;2023-04-22T02:22:31;100695.78;;;6.56;100.00
59513;BME280;45330;51.634;5.562;2023-04-22T02:24:57;100707.09;;;6.67;100.00
59513;BME280;45330;51.634;5.562;2023-04-22T02:27:22;100705.34;;;6.68;100.00
59513;BME280;45330;51.634;5.562;2023-04-22T02:29:47;100702.72;;;6.62;100.00
59513;BME280;45330;51.634;5.562;2023-04-22T02:32:13;100709.66;;;6.66;100.00
59513;BME280;45330;51.634;5.562;2023-04-22T02:34:39;100706.22;;;6.65;100.00
59513;BME280;45330;51.634;5.562;2023-04-22T02:37:04;100694.09;;;6.58;100.00
59513;BME280;45330;51.634;5.562;2023-04-22T02:39:30;100703.63;;;6.65;100.00
59513;BME280;45330;51.634;5.562;2023-04-22T02:41:55;100706.22;;;6.65;100.00
59513;BME280;45330;51.634;5.562;2023-04-22T02:44:21;100671.69;;;6.56;100.00
59513;BME280;45330;51.634;5.562;2023-04-22T02:46:46;100688.97;;;6.64;100.00
59513;BME280;45330;51.634;5.562;2023-04-22T02:49:11;100688.94;;;6.61;100.00
59513;BME280;45330;51.634;5.562;2023-04-22T02:51:37;100689.81;;;6.65;100.00
59513;BME280;45330;51.634;5.562;2023-04-22T02:54:03;100688.97;;;6.64;100.00
59513;BME280;45330;51.634;5.562;2023-04-22T02:56:29;100684.66;;;6.65;100.00
59513;BME280;45330;51.634;5.562;2023-04-22T02:58:55;100673.44;;;6.61;100.00
59513;BME280;45330;51.634;5.562;2023-04-22T03:01:21;100663.03;;;6.55;100.00
59513;BME280;45330;51.634;5.562;2023-04-22T03:03:46;100664.78;;;6.56;100.00
59513;BME280;45330;51.634;5.562;2023-04-22T03:06:11;100670.84;;;6.60;100.00
59513;BME280;45330;51.634;5.562;2023-04-22T03:08:37;100668.25;;;6.60;100.00
59513;BME280;45330;51.634;5.562;2023-04-22T03:11:03;100682.13;;;6.69;100.00
59513;BME280;45330;51.634;5.562;2023-04-22T03:13:29;100665.69;;;6.63;100.00
59513;BME280;45330;51.634;5.562;2023-04-22T03:15:54;100680.41;;;6.72;100.00
59513;BME280;45330;51.634;5.562;2023-04-22T03:18:19;100669.16;;;6.68;100.00
59513;BME280;45330;51.634;5.562;2023-04-22T03:20:45;100663.13;;;6.66;100.00
59513;BME280;45330;51.634;5.562;2023-04-22T03:23:10;100682.16;;;6.74;100.00
59513;BME280;45330;51.634;5.562;2023-04-22T03:25:35;100663.13;;;6.64;100.00
59513;BME280;45330;51.634;5.562;2023-04-22T03:28:02;100668.31;;;6.70;100.00
59513;BME280;45330;51.634;5.562;2023-04-22T03:30:27;100669.22;;;6.74;100.00
59513;BME280;45330;51.634;5.562;2023-04-22T03:32:52;100654.50;;;6.65;100.00
59513;BME280;45330;51.634;5.562;2023-04-22T03:35:19;100651.88;;;6.62;100.00
59513;BME280;45330;51.634;5.562;2023-04-22T03:37:44;100661.41;;;6.68;100.00
59513;BME280;45330;51.634;5.562;2023-04-22T03:40:10;100657.94;;;6.64;100.00
59513;BME280;45330;51.634;5.562;2023-04-22T03:42:36;100659.63;;;6.61;100.00
59513;BME280;45330;51.634;5.562;2023-04-22T03:45:01;100651.00;;;6.60;100.00
59513;BME280;45330;51.634;5.562;2023-04-22T03:47:27;100657.03;;;6.62;100.00
59513;BME280;45330;51.634;5.562;2023-04-22T03:49:52;100633.72;;;6.53;100.00
59513;BME280;45330;51.634;5.562;2023-04-22T03:52:17;100636.31;;;6.51;100.00
59513;BME280;45330;51.634;5.562;2023-04-22T03:54:43;100646.69;;;6.59;100.00
59513;BME280;45330;51.634;5.562;2023-04-22T03:57:08;100645.00;;;6.61;100.00
59513;BME280;45330;51.634;5.562;2023-04-22T03:59:33;100632.00;;;6.52;100.00
59513;BME280;45330;51.634;5.562;2023-04-22T04:01:59;100634.66;;;6.61;100.00
59513;BME280;45330;51.634;5.562;2023-04-22T04:04:24;100615.56;;;6.47;100.00
59513;BME280;45330;51.634;5.562;2023-04-22T04:06:50;100632.00;;;6.55;100.00
59513;BME280;45330;51.634;5.562;2023-04-22T04:09:16;100610.38;;;6.44;100.00
59513;BME280;45330;51.634;5.562;2023-04-22T04:11:41;100644.94;;;6.57;100.00
59513;BME280;45330;51.634;5.562;2023-04-22T04:14:06;100638.03;;;6.52;100.00
59513;BME280;45330;51.634;5.562;2023-04-22T04:16:32;100629.41;;;6.50;100.00
59513;BME280;45330;51.634;5.562;2023-04-22T04:18:57;100625.91;;;6.47;100.00
59513;BME280;45330;51.634;5.562;2023-04-22T04:21:23;100625.06;;;6.49;100.00
59513;BME280;45330;51.634;5.562;2023-04-22T04:23:48;100628.50;;;6.47;100.00
59513;BME280;45330;51.634;5.562;2023-04-22T04:26:14;100632.00;;;6.50;100.00
59513;BME280;45330;51.634;5.562;2023-04-22T04:28:40;100630.25;;;6.48;100.00
59513;BME280;45330;51.634;5.562;2023-04-22T04:31:06;100620.72;;;6.42;100.00
59513;BME280;45330;51.634;5.562;2023-04-22T04:33:32;100623.31;;;6.44;100.00
59513;BME280;45330;51.634;5.562;2023-04-22T04:35:57;100632.84;;;6.52;100.00
59513;BME280;45330;51.634;5.562;2023-04-22T04:38:23;100607.81;;;6.45;100.00
59513;BME280;45330;51.634;5.562;2023-04-22T04:40:51;100625.09;;;6.52;100.00
59513;BME280;45330;51.634;5.562;2023-04-22T04:43:18;100621.66;;;6.55;100.00
59513;BME280;45330;51.634;5.562;2023-04-22T04:45:44;100626.81;;;6.52;100.00
59513;BME280;45330;51.634;5.562;2023-04-22T04:48:14;100621.66;;;6.52;100.00
59513;BME280;45330;51.634;5.562;2023-04-22T04:50:41;100619.97;;;6.54;100.00
59513;BME280;45330;51.634;5.562;2023-04-22T04:53:07;100621.69;;;6.57;100.00
59513;BME280;45330;51.634;5.562;2023-04-22T04:55:33;100612.16;;;6.48;100.00
59513;BME280;45330;51.634;5.562;2023-04-22T04:57:58;100613.03;;;6.51;100.00
59513;BME280;45330;51.634;5.562;2023-04-22T05:00:24;100608.75;;;6.55;100.00
59513;BME280;45330;51.634;5.562;2023-04-22T05:02:49;100631.25;;;6.70;100.00
59513;BME280;45330;51.634;5.562;2023-04-22T05:05:15;100616.56;;;6.64;100.00
59513;BME280;45330;51.634;5.562;2023-04-22T05:07:40;100625.25;;;6.76;100.00
59513;BME280;45330;51.634;5.562;2023-04-22T05:10:06;100620.06;;;6.71;100.00
59513;BME280;45330;51.634;5.562;2023-04-22T05:12:31;100616.66;;;6.75;100.00
59513;BME280;45330;51.634;5.562;2023-04-22T05:14:57;100610.59;;;6.76;100.00
59513;BME280;45330;51.634;5.562;2023-04-22T05:17:22;100625.34;;;6.90;100.00
59513;BME280;45330;51.634;5.562;2023-04-22T05:19:47;100629.69;;;6.94;100.00
59513;BME280;45330;51.634;5.562;2023-04-22T05:22:13;100642.63;;;7.00;100.00
59513;BME280;45330;51.634;5.562;2023-04-22T05:24:38;100628.81;;;6.95;100.00
59513;BME280;45330;51.634;5.562;2023-04-22T05:27:03;100633.19;;;7.03;100.00
59513;BME280;45330;51.634;5.562;2023-04-22T05:29:29;100602.06;;;6.91;100.00
59513;BME280;45330;51.634;5.562;2023-04-22T05:31:55;100624.53;;;7.01;100.00
59513;BME280;45330;51.634;5.562;2023-04-22T05:34:21;100625.41;;;7.03;100.00
59513;BME280;45330;51.634;5.562;2023-04-22T05:36:46;100621.09;;;7.04;100.00
59513;BME280;45330;51.634;5.562;2023-04-22T05:39:12;100611.59;;;7.04;100.00
59513;BME280;45330;51.634;5.562;2023-04-22T05:41:37;100632.41;;;7.23;100.00
59513;BME280;45330;51.634;5.562;2023-04-22T05:44:03;100623.81;;;7.32;100.00
59513;BME280;45330;51.634;5.562;2023-04-22T05:46:28;100625.56;;;7.44;100.00
59513;BME280;45330;51.634;5.562;2023-04-22T05:48:54;100611.78;;;7.51;100.00
59513;BME280;45330;51.634;5.562;2023-04-22T05:51:20;100606.66;;;7.68;100.00
59513;BME280;45330;51.634;5.562;2023-04-22T05:53:46;100622.22;;;8.44;100.00
59513;BME280;45330;51.634;5.562;2023-04-22T05:56:11;100624.66;;;9.22;100.00
59513;BME280;45330;51.634;5.562;2023-04-22T05:58:36;100628.84;;;9.53;100.00
59513;BME280;45330;51.634;5.562;2023-04-22T06:01:02;100618.50;;;9.50;100.00
59513;BME280;45330;51.634;5.562;2023-04-22T06:03:27;100615.09;;;9.31;100.00
59513;BME280;45330;51.634;5.562;2023-04-22T06:05:53;100605.63;;;9.22;100.00
59513;BME280;45330;51.634;5.562;2023-04-22T06:08:18;100604.78;;;9.20;100.00
59513;BME280;45330;51.634;5.562;2023-04-22T06:10:44;100601.97;;;9.58;100.00
59513;BME280;45330;51.634;5.562;2023-04-22T06:13:09;100604.06;;;10.31;100.00
59513;BME280;45330;51.634;5.562;2023-04-22T06:15:35;100591.31;;;10.92;100.00
59513;BME280;45330;51.634;5.562;2023-04-22T06:18:00;100610.84;;;11.28;100.00
59513;BME280;45330;51.634;5.562;2023-04-22T06:20:26;100608.69;;;10.90;100.00
59513;BME280;45330;51.634;5.562;2023-04-22T06:22:51;100592.75;;;10.34;100.00
59513;BME280;45330;51.634;5.562;2023-04-22T06:25:16;100583.66;;;9.83;100.00
59513;BME280;45330;51.634;5.562;2023-04-22T06:27:42;100609.69;;;9.72;100.00
59513;BME280;45330;51.634;5.562;2023-04-22T06:30:07;100606.22;;;9.70;100.00
59513;BME280;45330;51.634;5.562;2023-04-22T06:32:35;100599.28;;;9.75;100.00
59513;BME280;45330;51.634;5.562;2023-04-22T06:35:00;100594.94;;;9.74;100.00
59513;BME280;45330;51.634;5.562;2023-04-22T06:37:25;100581.94;;;9.74;100.00
59513;BME280;45330;51.634;5.562;2023-04-22T06:39:51;100575.06;;;9.73;100.00
59513;BME280;45330;51.634;5.562;2023-04-22T06:42:16;100587.06;;;9.87;100.00
59513;BME280;45330;51.634;5.562;2023-04-22T06:44:42;100592.16;;;10.02;100.00
59513;BME280;45330;51.634;5.562;2023-04-22T06:47:07;100585.22;;;10.04;100.00
59513;BME280;45330;51.634;5.562;2023-04-22T06:49:33;100585.09;;;10.15;100.00
59513;BME280;45330;51.634;5.562;2023-04-22T06:51:59;100571.19;;;10.21;100.00
59513;BME280;45330;51.634;5.562;2023-04-22T06:54:25;100588.25;;;10.54;100.00
59513;BME280;45330;51.634;5.562;2023-04-22T06:56:50;100579.47;;;10.64;100.00
59513;BME280;45330;51.634;5.562;2023-04-22T06:59:16;100581.88;;;10.83;100.00
59513;BME280;45330;51.634;5.562;2023-04-22T07:01:41;100584.34;;;10.94;100.00
59513;BME280;45330;51.634;5.562;2023-04-22T07:04:06;100572.97;;;11.01;100.00
59513;BME280;45330;51.634;5.562;2023-04-22T07:06:32;100571.22;;;11.03;100.00
59513;BME280;45330;51.634;5.562;2023-04-22T07:08:59;100565.28;;;10.92;100.00
59513;BME280;45330;51.634;5.562;2023-04-22T07:11:24;100583.31;;;11.07;100.00
59513;BME280;45330;51.634;5.562;2023-04-22T07:13:50;100574.47;;;11.21;100.00
59513;BME280;45330;51.634;5.562;2023-04-22T07:16:15;100577.56;;;11.50;100.00
59513;BME280;45330;51.634;5.562;2023-04-22T07:18:41;100559.94;;;11.66;100.00
59513;BME280;45330;51.634;5.562;2023-04-22T07:21:06;100580.22;;;12.04;100.00
59513;BME280;45330;51.634;5.562;2023-04-22T07:23:32;100573.00;;;12.21;100.00
59513;BME280;45330;51.634;5.562;2023-04-22T07:25:57;100569.41;;;12.28;100.00
59513;BME280;45330;51.634;5.562;2023-04-22T07:28:23;100553.84;;;12.24;100.00
59513;BME280;45330;51.634;5.562;2023-04-22T07:30:48;100557.16;;;12.32;100.00
59513;BME280;45330;51.634;5.562;2023-04-22T07:33:13;100575.19;;;12.44;100.00
59513;BME280;45330;51.634;5.562;2023-04-22T07:35:39;100551.94;;;12.30;100.00
59513;BME280;45330;51.634;5.562;2023-04-22T07:38:04;100574.47;;;12.38;100.00
59513;BME280;45330;51.634;5.562;2023-04-22T07:40:30;100575.25;;;12.41;100.00
59513;BME280;45330;51.634;5.562;2023-04-22T07:42:55;100563.16;;;12.37;100.00
59513;BME280;45330;51.634;5.562;2023-04-22T07:45:21;100564.94;;;12.35;100.00
59513;BME280;45330;51.634;5.562;2023-04-22T07:47:46;100560.47;;;12.40;100.00
59513;BME280;45330;51.634;5.562;2023-04-22T07:50:12;100568.16;;;12.49;100.00
59513;BME280;45330;51.634;5.562;2023-04-22T07:52:37;100577.59;;;12.57;100.00
59513;BME280;45330;51.634;5.562;2023-04-22T07:55:03;100584.34;;;12.67;100.00
59513;BME280;45330;51.634;5.562;2023-04-22T07:57:28;100580.81;;;12.69;100.00
59513;BME280;45330;51.634;5.562;2023-04-22T07:59:54;100580.72;;;12.76;100.00
59513;BME280;45330;51.634;5.562;2023-04-22T08:02:19;100582.22;;;12.87;100.00
59513;BME280;45330;51.634;5.562;2023-04-22T08:04:45;100559.88;;;12.74;100.00
59513;BME280;45330;51.634;5.562;2023-04-22T08:07:10;100554.31;;;12.91;100.00
59513;BME280;45330;51.634;5.562;2023-04-22T08:09:35;100557.59;;;12.99;100.00
59513;BME280;45330;51.634;5.562;2023-04-22T08:12:01;100559.88;;;13.16;100.00
59513;BME280;45330;51.634;5.562;2023-04-22T08:14:27;100548.16;;;13.33;100.00
59513;BME280;45330;51.634;5.562;2023-04-22T08:16:53;100544.50;;;13.43;100.00
59513;BME280;45330;51.634;5.562;2023-04-22T08:19:19;100518.19;;;13.51;100.00
59513;BME280;45330;51.634;5.562;2023-04-22T08:21:45;100525.75;;;13.63;100.00
59513;BME280;45330;51.634;5.562;2023-04-22T08:24:10;100534.94;;;13.78;100.00
59513;BME280;45330;51.634;5.562;2023-04-22T08:26:36;100537.25;;;13.90;100.00
59513;BME280;45330;51.634;5.562;2023-04-22T08:29:03;100535.50;;;13.93;100.00
59513;BME280;45330;51.634;5.562;2023-04-22T08:31:29;100532.56;;;14.05;100.00
59513;BME280;45330;51.634;5.562;2023-04-22T08:33:55;100540.63;;;14.30;100.00
59513;BME280;45330;51.634;5.562;2023-04-22T08:36:20;100541.34;;;14.70;100.00
59513;BME280;45330;51.634;5.562;2023-04-22T08:38:50;100528.31;;;14.98;100.00
59513;BME280;45330;51.634;5.562;2023-04-22T08:41:17;100532.94;;;15.18;100.00
59513;BME280;45330;51.634;5.562;2023-04-22T08:43:43;100531.94;;;15.22;100.00
59513;BME280;45330;51.634;5.562;2023-04-22T08:46:09;100524.75;;;15.29;100.00
59513;BME280;45330;51.634;5.562;2023-04-22T08:48:35;100527.22;;;15.34;100.00
59513;BME280;45330;51.634;5.562;2023-04-22T08:51:01;100517.78;;;15.56;100.00
59513;BME280;45330;51.634;5.562;2023-04-22T08:53:27;100495.03;;;15.85;100.00
59513;BME280;45330;51.634;5.562;2023-04-22T08:55:54;100509.06;;;16.09;100.00
59513;BME280;45330;51.634;5.562;2023-04-22T08:58:21;100490.31;;;15.95;100.00
59513;BME280;45330;51.634;5.562;2023-04-22T09:00:47;100501.97;;;15.86;100.00
59513;BME280;45330;51.634;5.562;2023-04-22T09:03:14;100488.25;;;15.76;100.00
59513;BME280;45330;51.634;5.562;2023-04-22T09:05:40;100476.19;;;15.72;100.00
59513;BME280;45330;51.634;5.562;2023-04-22T09:08:06;100493.91;;;15.92;100.00
59513;BME280;45330;51.634;5.562;2023-04-22T09:10:35;100499.84;;;15.98;100.00
59513;BME280;45330;51.634;5.562;2023-04-22T09:13:02;100495.56;;;15.95;100.00
59513;BME280;45330;51.634;5.562;2023-04-22T09:15:28;100488.53;;;15.95;100.00
59513;BME280;45330;51.634;5.562;2023-04-22T09:17:53;100485.91;;;15.95;100.00
59513;BME280;45330;51.634;5.562;2023-04-22T09:20:25;100477.44;;;15.87;100.00
59513;BME280;45330;51.634;5.562;2023-04-22T09:22:51;100492.78;;;16.00;100.00
59513;BME280;45330;51.634;5.562;2023-04-22T09:25:18;100467.50;;;15.97;100.00
59513;BME280;45330;51.634;5.562;2023-04-22T09:27:54;100474.13;;;16.07;100.00
59513;BME280;45330;51.634;5.562;2023-04-22T09:30:34;100490.88;;;16.28;100.00
59513;BME280;45330;51.634;5.562;2023-04-22T09:33:03;100489.78;;;16.36;100.00
59513;BME280;45330;51.634;5.562;2023-04-22T09:35:33;100495.09;;;16.58;100.00
59513;BME280;45330;51.634;5.562;2023-04-22T09:38:01;100468.38;;;16.70;100.00
59513;BME280;45330;51.634;5.562;2023-04-22T09:40:30;100483.63;;;16.84;100.00
59513;BME280;45330;51.634;5.562;2023-04-22T09:42:57;100485.69;;;16.76;100.00
59513;BME280;45330;51.634;5.562;2023-04-22T09:45:27;100477.97;;;16.71;100.00
59513;BME280;45330;51.634;5.562;2023-04-22T09:47:54;100472.03;;;16.66;100.00
59513;BME280;45330;51.634;5.562;2023-04-22T09:50:23;100467.53;;;16.70;100.00
59513;BME280;45330;51.634;5.562;2023-04-22T09:52:57;100469.00;;;16.77;100.00
59513;BME280;45330;51.634;5.562;2023-04-22T09:55:24;100475.88;;;16.81;100.00
59513;BME280;45330;51.634;5.562;2023-04-22T09:57:52;100475.97;;;16.78;99.99
59513;BME280;45330;51.634;5.562;2023-04-22T10:00:17;100487.53;;;16.74;98.80
59513;BME280;45330;51.634;5.562;2023-04-22T10:02:43;100478.44;;;16.83;99.84
59513;BME280;45330;51.634;5.562;2023-04-22T10:05:08;100470.41;;;16.86;96.40
59513;BME280;45330;51.634;5.562;2023-04-22T10:07:36;100472.00;;;16.91;99.25
59513;BME280;45330;51.634;5.562;2023-04-22T10:10:07;100487.16;;;17.07;96.59
59513;BME280;45330;51.634;5.562;2023-04-22T10:12:36;100468.69;;;17.08;97.10
59513;BME280;45330;51.634;5.562;2023-04-22T10:15:06;100472.09;;;17.12;99.85
59513;BME280;45330;51.634;5.562;2023-04-22T10:17:34;100479.72;;;17.18;97.37
59513;BME280;45330;51.634;5.562;2023-04-22T10:20:03;100468.56;;;17.11;99.95
59513;BME280;45330;51.634;5.562;2023-04-22T10:22:34;100464.44;;;17.28;99.16
59513;BME280;45330;51.634;5.562;2023-04-22T10:24:59;100477.47;;;17.74;95.84
59513;BME280;45330;51.634;5.562;2023-04-22T10:27:25;100472.97;;;18.19;91.30
59513;BME280;45330;51.634;5.562;2023-04-22T10:29:50;100493.03;;;18.42;86.62
59513;BME280;45330;51.634;5.562;2023-04-22T10:34:42;100509.19;;;18.93;79.50
59513;BME280;45330;51.634;5.562;2023-04-22T10:37:09;100496.16;;;19.09;77.87
59513;BME280;45330;51.634;5.562;2023-04-22T10:39:36;100500.56;;;19.08;76.55
59513;BME280;45330;51.634;5.562;2023-04-22T10:44:53;100489.75;;;19.68;78.99
59513;BME280;45330;51.634;5.562;2023-04-22T10:47:28;100485.22;;;19.90;74.77
59513;BME280;45330;51.634;5.562;2023-04-22T10:50:19;100477.53;;;19.85;74.79
59513;BME280;45330;51.634;5.562;2023-04-22T10:52:59;100469.25;;;19.56;73.67
59513;BME280;45330;51.634;5.562;2023-04-22T10:55:48;100481.75;;;19.52;77.75
59513;BME280;45330;51.634;5.562;2023-04-22T10:58:19;100466.53;;;19.40;73.50
59513;BME280;45330;51.634;5.562;2023-04-22T11:00:44;100465.81;;;19.36;74.08
59513;BME280;45330;51.634;5.562;2023-04-22T11:03:14;100471.44;;;19.11;72.71
59513;BME280;45330;51.634;5.562;2023-04-22T11:05:41;100476.72;;;18.92;74.40
59513;BME280;45330;51.634;5.562;2023-04-22T11:08:09;100481.16;;;18.71;73.26
59513;BME280;45330;51.634;5.562;2023-04-22T11:13:08;100473.63;;;18.24;76.50
59513;BME280;45330;51.634;5.562;2023-04-22T11:15:35;100474.78;;;17.97;77.56
59513;BME280;45330;51.634;5.562;2023-04-22T11:18:02;100480.97;;;17.74;79.32
59513;BME280;45330;51.634;5.562;2023-04-22T11:20:28;100473.56;;;17.41;80.33
59513;BME280;45330;51.634;5.562;2023-04-22T11:22:55;100484.78;;;17.23;82.42
59513;BME280;45330;51.634;5.562;2023-04-22T11:25:22;100480.69;;;16.93;85.52
59513;BME280;45330;51.634;5.562;2023-04-22T11:27:48;100485.69;;;16.76;87.74
59513;BME280;45330;51.634;5.562;2023-04-22T11:30:19;100486.69;;;16.72;90.60
59513;BME280;45330;51.634;5.562;2023-04-22T11:32:50;100486.88;;;16.67;93.93
59513;BME280;45330;51.634;5.562;2023-04-22T11:37:48;100469.13;;;16.50;99.72
59513;BME280;45330;51.634;5.562;2023-04-22T11:40:19;100479.84;;;16.44;98.68
59513;BME280;45330;51.634;5.562;2023-04-22T11:42:46;100468.53;;;16.42;100.00
59513;BME280;45330;51.634;5.562;2023-04-22T11:45:12;100483.91;;;16.53;99.77
59513;BME280;45330;51.634;5.562;2023-04-22T11:47:38;100484.38;;;16.40;99.24
59513;BME280;45330;51.634;5.562;2023-04-22T11:50:06;100481.44;;;16.24;100.00
59513;BME280;45330;51.634;5.562;2023-04-22T11:52:56;100465.28;;;16.10;100.00
59513;BME280;45330;51.634;5.562;2023-04-22T11:58:04;100479.66;;;16.00;100.00
59513;BME280;45330;51.634;5.562;2023-04-22T12:00:41;100472.19;;;15.87;100.00
59513;BME280;45330;51.634;5.562;2023-04-22T12:03:15;100480.97;;;15.86;100.00
59513;BME280;45330;51.634;5.562;2023-04-22T12:08:16;100490.94;;;15.75;100.00
59513;BME280;45330;51.634;5.562;2023-04-22T12:10:46;100469.28;;;15.70;100.00
59513;BME280;45330;51.634;5.562;2023-04-22T12:13:25;100488.72;;;15.91;100.00
59513;BME280;45330;51.634;5.562;2023-04-22T12:15:58;100489.25;;;16.01;100.00
59513;BME280;45330;51.634;5.562;2023-04-22T12:18:28;100488.59;;;16.19;100.00
59513;BME280;45330;51.634;5.562;2023-04-22T12:21:07;100491.75;;;16.29;100.00
59513;BME280;45330;51.634;5.562;2023-04-22T12:23:50;100482.41;;;16.22;100.00
59513;BME280;45330;51.634;5.562;2023-04-22T12:26:18;100493.38;;;16.33;100.00
59513;BME280;45330;51.634;5.562;2023-04-22T12:28:45;100490.63;;;16.36;100.00
59513;BME280;45330;51.634;5.562;2023-04-22T12:31:11;100493.13;;;16.39;100.00
59513;BME280;45330;51.634;5.562;2023-04-22T12:33:37;100478.16;;;16.18;100.00
59513;BME280;45330;51.634;5.562;2023-04-22T12:36:03;100491.81;;;16.27;100.00
59513;BME280;45330;51.634;5.562;2023-04-22T12:38:29;100485.28;;;16.14;100.00
59513;BME280;45330;51.634;5.562;2023-04-22T12:40:54;100487.16;;;16.10;100.00
59513;BME280;45330;51.634;5.562;2023-04-22T12:43:20;100481.16;;;16.07;100.00
59513;BME280;45330;51.634;5.562;2023-04-22T12:45:45;100484.16;;;15.96;100.00
59513;BME280;45330;51.634;5.562;2023-04-22T12:48:11;100474.31;;;15.76;100.00
59513;BME280;45330;51.634;5.562;2023-04-22T12:50:36;100490.25;;;15.70;100.00
59513;BME280;45330;51.634;5.562;2023-04-22T12:53:02;100490.75;;;15.54;100.00
59513;BME280;45330;51.634;5.562;2023-04-22T12:55:27;100500.00;;;15.38;100.00
59513;BME280;45330;51.634;5.562;2023-04-22T12:57:53;100517.00;;;15.24;100.00